Time;durP1;ratioP1;P1;durP2;ratioP2;P2;SDS_P1;SDS_P2;PMS_P1;PMS_P2;Temp;Humidity;BMP_temperature;BMP_pressure;BME280_temperature;BME280_humidity;BME280_pressure;Samples;Min_cycle;Max_cycle;Signal;HPM_P1;HPM_P2
2021/04/23 00:00:23;;;;;;;16.57;9.10;;;;;;;;;;5012007;28;20507;-63
2021/04/23 00:02:50;;;;;;;14.90;9.37;;;;;;;;;;5011356;28;20452;-63
2021/04/23 00:05:17;;;;;;;14.20;8.30;;;;;;;;;;5012048;28;20489;-63
2021/04/23 00:07:44;;;;;;;13.13;8.07;;;;;;;;;;5011168;28;20480;-63
2021/04/23 00:10:12;;;;;;;13.90;9.00;;;;;;;;;;5011894;28;20446;-63
2021/04/23 00:12:39;;;;;;;15.77;9.80;;;;;;;;;;5015693;28;20528;-63
2021/04/23 00:15:07;;;;;;;17.03;9.63;;;;;;;;;;5012125;28;20446;-63
2021/04/23 00:17:34;;;;;;;15.27;9.63;;;;;;;;;;5011000;28;20449;-64
2021/04/23 00:20:00;;;;;;;16.37;9.70;;;;;;;;;;5011922;28;20454;-64
2021/04/23 00:22:27;;;;;;;17.00;9.80;;;;;;;;;;5010567;28;20450;-63
2021/04/23 00:24:54;;;;;;;15.70;9.60;;;;;;;;;;5010581;28;21942;-63
2021/04/23 00:27:21;;;;;;;14.37;9.20;;;;;;;;;;4992054;28;20833;-63
2021/04/23 00:29:47;;;;;;;15.13;9.30;;;;;;;;;;5002515;28;20476;-63
2021/04/23 00:34:59;;;;;;;19.83;9.10;;;;;;;;;;5018413;28;20518;-62
2021/04/23 00:37:26;;;;;;;12.83;8.10;;;;;;;;;;5011259;28;20453;-63
2021/04/23 00:39:52;;;;;;;13.77;8.53;;;;;;;;;;5011138;28;20453;-64
2021/04/23 00:42:20;;;;;;;17.07;8.97;;;;;;;;;;5010923;28;20454;-64
2021/04/23 00:44:46;;;;;;;14.37;8.53;;;;;;;;;;5011508;28;20456;-63
2021/04/23 00:47:13;;;;;;;11.27;8.93;;;;;;;;;;5011434;28;20456;-64
2021/04/23 00:49:39;;;;;;;17.17;7.83;;;;;;;;;;4995292;28;20866;-63
2021/04/23 00:52:06;;;;;;;13.03;8.10;;;;;;;;;;5003042;28;20458;-63
2021/04/23 00:54:33;;;;;;;12.33;9.40;;;;;;;;;;5006997;28;21244;-63
2021/04/23 00:57:00;;;;;;;16.50;8.50;;;;;;;;;;5008582;28;20501;-63
2021/04/23 00:59:27;;;;;;;14.77;7.60;;;;;;;;;;5005161;28;20473;-63
2021/04/23 01:01:56;;;;;;;17.60;8.33;;;;;;;;;;5018142;28;20510;-63
2021/04/23 01:04:27;;;;;;;14.73;9.00;;;;;;;;;;5035642;28;20449;-63
2021/04/23 01:06:54;;;;;;;16.60;8.63;;;;;;;;;;5018416;28;20492;-63
2021/04/23 01:09:22;;;;;;;11.67;7.97;;;;;;;;;;5015251;28;20483;-63
2021/04/23 01:11:49;;;;;;;12.80;8.80;;;;;;;;;;5014120;28;20457;-63
2021/04/23 01:14:16;;;;;;;13.40;8.60;;;;;;;;;;5015512;28;20449;-63
2021/04/23 01:16:44;;;;;;;13.03;8.30;;;;;;;;;;5016122;28;20496;-63
2021/04/23 01:19:12;;;;;;;14.17;9.83;;;;;;;;;;5015093;28;20469;-64
2021/04/23 01:21:40;;;;;;;17.50;8.10;;;;;;;;;;5014924;28;20503;-63
2021/04/23 01:24:08;;;;;;;12.87;8.80;;;;;;;;;;5014837;28;20975;-62
2021/04/23 01:26:36;;;;;;;13.77;8.17;;;;;;;;;;5011643;28;20489;-63
2021/04/23 01:29:04;;;;;;;14.73;8.73;;;;;;;;;;5014592;28;20481;-62
2021/04/23 01:31:32;;;;;;;12.73;8.30;;;;;;;;;;5019437;28;20820;-63
2021/04/23 01:34:01;;;;;;;14.70;8.93;;;;;;;;;;5017966;28;20454;-63
2021/04/23 01:36:28;;;;;;;14.70;10.10;;;;;;;;;;5015251;28;20445;-62
2021/04/23 01:38:55;;;;;;;15.70;10.10;;;;;;;;;;5023821;28;20469;-62
2021/04/23 01:41:22;;;;;;;13.60;8.33;;;;;;;;;;5023130;28;20445;-63
2021/04/23 01:43:50;;;;;;;16.17;9.13;;;;;;;;;;5019227;28;20825;-63
2021/04/23 01:46:17;;;;;;;13.73;8.10;;;;;;;;;;5023591;28;20579;-62
2021/04/23 01:48:43;;;;;;;10.37;7.50;;;;;;;;;;5004352;28;20485;-63
2021/04/23 01:51:11;;;;;;;15.57;8.43;;;;;;;;;;5013621;28;20503;-63
2021/04/23 01:53:38;;;;;;;10.90;7.80;;;;;;;;;;5001494;28;20449;-63
2021/04/23 01:56:06;;;;;;;17.50;8.50;;;;;;;;;;5014534;28;20441;-62
2021/04/23 01:58:33;;;;;;;11.37;8.67;;;;;;;;;;5017284;28;20477;-62
2021/04/23 02:01:00;;;;;;;16.93;8.17;;;;;;;;;;5013802;28;20990;-63
2021/04/23 02:03:27;;;;;;;15.70;8.60;;;;;;;;;;5013712;28;20453;-62
2021/04/23 02:05:54;;;;;;;15.07;8.00;;;;;;;;;;5013566;28;20485;-62
2021/04/23 02:08:21;;;;;;;14.97;8.50;;;;;;;;;;5014322;28;20476;-63
2021/04/23 02:10:49;;;;;;;12.23;7.40;;;;;;;;;;5013921;28;20802;-62
2021/04/23 02:13:21;;;;;;;14.50;7.57;;;;;;;;;;5015567;28;20891;-63
2021/04/23 02:15:47;;;;;;;11.27;7.60;;;;;;;;;;5007534;28;20447;-62
2021/04/23 02:18:14;;;;;;;11.20;7.60;;;;;;;;;;5011314;28;20477;-63
2021/04/23 02:20:41;;;;;;;13.20;8.57;;;;;;;;;;5009857;28;20451;-63
2021/04/23 02:23:09;;;;;;;14.27;7.33;;;;;;;;;;5011446;28;20449;-63
2021/04/23 02:25:36;;;;;;;11.63;7.43;;;;;;;;;;5014683;28;20527;-62
2021/04/23 02:28:04;;;;;;;14.80;7.50;;;;;;;;;;5016102;28;21109;-62
2021/04/23 02:30:32;;;;;;;14.17;8.23;;;;;;;;;;5012581;28;20445;-63
2021/04/23 02:32:59;;;;;;;10.63;6.50;;;;;;;;;;4999444;28;20513;-63
2021/04/23 02:35:27;;;;;;;8.73;5.97;;;;;;;;;;5002257;28;20462;-63
2021/04/23 02:37:54;;;;;;;7.20;6.33;;;;;;;;;;5013832;28;20469;-63
2021/04/23 02:40:23;;;;;;;11.80;7.37;;;;;;;;;;5012822;28;20461;-63
2021/04/23 02:42:51;;;;;;;14.67;7.10;;;;;;;;;;5012719;28;20492;-63
2021/04/23 02:45:20;;;;;;;14.57;7.30;;;;;;;;;;5013502;28;20478;-62
2021/04/23 02:47:47;;;;;;;11.83;6.33;;;;;;;;;;5012888;28;20478;-63
2021/04/23 02:50:17;;;;;;;12.43;6.40;;;;;;;;;;5013635;28;20853;-63
2021/04/23 02:52:44;;;;;;;12.73;6.40;;;;;;;;;;5012941;28;20478;-62
2021/04/23 02:55:12;;;;;;;12.60;5.70;;;;;;;;;;5014331;28;20456;-63
2021/04/23 02:57:39;;;;;;;14.97;6.03;;;;;;;;;;5012707;28;20464;-62
2021/04/23 03:00:07;;;;;;;14.83;6.70;;;;;;;;;;5013875;28;20445;-63
2021/04/23 03:02:34;;;;;;;11.90;6.20;;;;;;;;;;5002967;28;20675;-63
2021/04/23 03:05:01;;;;;;;9.97;6.30;;;;;;;;;;5008208;28;20983;-63
2021/04/23 03:07:28;;;;;;;7.73;5.90;;;;;;;;;;5003482;28;20942;-63
2021/04/23 03:09:55;;;;;;;12.83;6.40;;;;;;;;;;5012631;28;20967;-62
2021/04/23 03:12:21;;;;;;;9.00;5.70;;;;;;;;;;5005375;28;20521;-63
2021/04/23 03:14:48;;;;;;;9.17;5.53;;;;;;;;;;5011651;28;20471;-63
2021/04/23 03:17:14;;;;;;;10.60;5.23;;;;;;;;;;5016987;28;20952;-63
2021/04/23 03:19:41;;;;;;;11.90;6.07;;;;;;;;;;5013176;28;20553;-63
2021/04/23 03:22:09;;;;;;;9.77;5.57;;;;;;;;;;5012362;28;20460;-62
2021/04/23 03:24:35;;;;;;;8.47;5.53;;;;;;;;;;5029897;28;20456;-63
2021/04/23 03:27:03;;;;;;;10.80;5.50;;;;;;;;;;5013530;28;20494;-63
2021/04/23 03:29:29;;;;;;;12.90;6.00;;;;;;;;;;4996975;28;20480;-63
2021/04/23 03:31:56;;;;;;;11.90;5.90;;;;;;;;;;5010734;28;20454;-63
2021/04/23 03:34:23;;;;;;;10.93;5.43;;;;;;;;;;5008756;28;20508;-63
2021/04/23 03:36:49;;;;;;;8.97;5.20;;;;;;;;;;5011844;28;20450;-62
2021/04/23 03:39:17;;;;;;;9.83;6.00;;;;;;;;;;5006334;28;20482;-62
2021/04/23 03:41:44;;;;;;;7.17;4.73;;;;;;;;;;5007641;28;21016;-62
2021/04/23 03:44:11;;;;;;;9.83;4.87;;;;;;;;;;5006040;28;20796;-63
2021/04/23 03:46:37;;;;;;;12.13;5.70;;;;;;;;;;5012052;28;20481;-62
2021/04/23 03:49:04;;;;;;;9.13;5.10;;;;;;;;;;5012101;28;20867;-62
2021/04/23 03:51:31;;;;;;;9.07;5.20;;;;;;;;;;5009203;28;20468;-62
2021/04/23 03:53:58;;;;;;;11.67;5.03;;;;;;;;;;5005810;28;20450;-62
2021/04/23 03:56:25;;;;;;;9.17;5.10;;;;;;;;;;5010592;28;20450;-63
2021/04/23 03:58:53;;;;;;;10.57;5.23;;;;;;;;;;5008777;28;20474;-62
2021/04/23 04:01:20;;;;;;;12.87;5.63;;;;;;;;;;5011648;28;21188;-62
2021/04/23 04:03:47;;;;;;;14.83;6.20;;;;;;;;;;4992988;28;20457;-62
2021/04/23 04:06:14;;;;;;;13.80;5.77;;;;;;;;;;4992389;28;20555;-62
2021/04/23 04:08:40;;;;;;;10.17;5.20;;;;;;;;;;5016023;28;20887;-62
2021/04/23 04:11:07;;;;;;;11.57;6.33;;;;;;;;;;5014661;28;20458;-63
2021/04/23 04:13:36;;;;;;;8.97;5.97;;;;;;;;;;5011441;28;20961;-63
2021/04/23 04:16:03;;;;;;;12.70;5.97;;;;;;;;;;5012055;28;20449;-62
2021/04/23 04:18:29;;;;;;;11.70;6.27;;;;;;;;;;5009724;28;20531;-62
2021/04/23 04:20:56;;;;;;;10.70;5.23;;;;;;;;;;5012091;28;20526;-62
2021/04/23 04:23:24;;;;;;;10.23;6.43;;;;;;;;;;5011729;28;20449;-62
2021/04/23 04:25:51;;;;;;;8.43;5.60;;;;;;;;;;5010250;28;20481;-62
2021/04/23 04:28:18;;;;;;;11.53;6.47;;;;;;;;;;5011989;28;20977;-62
2021/04/23 04:30:45;;;;;;;10.50;6.60;;;;;;;;;;5002432;28;20477;-62
2021/04/23 04:33:12;;;;;;;9.57;6.10;;;;;;;;;;5008454;28;20464;-62
2021/04/23 04:35:40;;;;;;;9.90;6.30;;;;;;;;;;5008024;28;20457;-62
2021/04/23 04:38:08;;;;;;;13.37;6.00;;;;;;;;;;5011640;28;20506;-62
2021/04/23 04:40:35;;;;;;;14.17;5.73;;;;;;;;;;5011238;28;20464;-63
2021/04/23 04:43:02;;;;;;;13.70;5.90;;;;;;;;;;5010441;28;20453;-63
2021/04/23 04:45:29;;;;;;;11.27;5.10;;;;;;;;;;5012163;28;20488;-62
2021/04/23 04:47:57;;;;;;;14.00;5.80;;;;;;;;;;5011180;28;20481;-62
2021/04/23 04:50:27;;;;;;;9.50;5.97;;;;;;;;;;5011584;28;20460;-62
2021/04/23 04:52:53;;;;;;;12.40;5.83;;;;;;;;;;5011143;28;20454;-63
2021/04/23 04:55:21;;;;;;;9.33;5.70;;;;;;;;;;5011241;28;20462;-63
2021/04/23 04:57:48;;;;;;;11.70;6.07;;;;;;;;;;5011299;28;20481;-63
2021/04/23 05:00:15;;;;;;;10.00;5.17;;;;;;;;;;5011606;28;20815;-63
2021/04/23 05:02:41;;;;;;;14.33;5.27;;;;;;;;;;5007936;28;20453;-62
2021/04/23 05:05:10;;;;;;;11.97;5.93;;;;;;;;;;5012489;28;20462;-62
2021/04/23 05:07:36;;;;;;;14.03;5.70;;;;;;;;;;5001383;28;20458;-62
2021/04/23 05:10:03;;;;;;;11.40;5.43;;;;;;;;;;5001822;28;20450;-63
2021/04/23 05:12:30;;;;;;;9.40;4.50;;;;;;;;;;5010975;28;20953;-63
2021/04/23 05:14:56;;;;;;;10.80;4.70;;;;;;;;;;5011400;28;20507;-63
2021/04/23 05:17:23;;;;;;;8.67;5.00;;;;;;;;;;5003784;28;20454;-62
2021/04/23 05:19:50;;;;;;;8.63;4.10;;;;;;;;;;5007775;28;20830;-62
2021/04/23 05:22:17;;;;;;;14.03;5.17;;;;;;;;;;5005998;28;20944;-62
2021/04/23 05:24:44;;;;;;;11.93;4.93;;;;;;;;;;5016430;28;20479;-62
2021/04/23 05:27:10;;;;;;;9.87;5.30;;;;;;;;;;5015716;28;20481;-62
2021/04/23 05:29:37;;;;;;;14.57;5.20;;;;;;;;;;5012300;28;20465;-62
2021/04/23 05:32:04;;;;;;;9.20;4.30;;;;;;;;;;5002514;28;20953;-62
2021/04/23 05:34:31;;;;;;;11.50;4.87;;;;;;;;;;5003625;28;20465;-63
2021/04/23 05:36:57;;;;;;;8.80;3.27;;;;;;;;;;5013155;28;20450;-63
2021/04/23 05:39:25;;;;;;;8.83;3.10;;;;;;;;;;5007005;28;20474;-63
2021/04/23 05:41:52;;;;;;;8.60;3.30;;;;;;;;;;5001347;28;20829;-61
2021/04/23 05:44:19;;;;;;;8.83;3.80;;;;;;;;;;5014564;28;20821;-61
2021/04/23 05:46:45;;;;;;;7.30;2.83;;;;;;;;;;5024942;28;20484;-61
2021/04/23 05:49:12;;;;;;;8.43;3.20;;;;;;;;;;5029498;23;20500;-67
2021/04/23 05:51:39;;;;;;;9.50;2.60;;;;;;;;;;5008896;28;20457;-65
2021/04/23 05:54:05;;;;;;;7.90;3.30;;;;;;;;;;5013808;28;20477;-65
2021/04/23 05:56:33;;;;;;;5.70;2.60;;;;;;;;;;5026946;28;20450;-68
2021/04/23 05:58:59;;;;;;;5.57;2.77;;;;;;;;;;5034357;28;20475;-65
2021/04/23 06:01:26;;;;;;;7.10;3.10;;;;;;;;;;5027342;28;21039;-65
2021/04/23 06:03:53;;;;;;;8.50;2.77;;;;;;;;;;5034521;28;20502;-66
2021/04/23 06:06:19;;;;;;;7.80;2.80;;;;;;;;;;5024009;28;20482;-65
2021/04/23 06:08:46;;;;;;;6.30;2.90;;;;;;;;;;5015281;28;20530;-65
2021/04/23 06:11:16;;;;;;;10.77;3.10;;;;;;;;;;5014138;28;20516;-67
2021/04/23 06:13:44;;;;;;;8.50;2.90;;;;;;;;;;5016452;28;20457;-66
2021/04/23 06:16:10;;;;;;;9.30;2.80;;;;;;;;;;5013774;28;20445;-65
2021/04/23 06:18:37;;;;;;;6.63;3.07;;;;;;;;;;5030068;28;20852;-65
2021/04/23 06:21:05;;;;;;;7.67;3.37;;;;;;;;;;5022104;28;20979;-65
2021/04/23 06:23:32;;;;;;;6.50;3.07;;;;;;;;;;5015603;28;20501;-65
2021/04/23 06:25:59;;;;;;;6.60;2.43;;;;;;;;;;5005903;28;20981;-65
2021/04/23 06:28:25;;;;;;;8.90;3.67;;;;;;;;;;5007463;28;20489;-66
2021/04/23 06:30:53;;;;;;;9.00;2.90;;;;;;;;;;5021757;28;20453;-65
2021/04/23 06:33:22;;;;;;;6.43;3.20;;;;;;;;;;5025288;28;20459;-65
2021/04/23 06:35:49;;;;;;;7.90;3.03;;;;;;;;;;5013690;28;20454;-65
2021/04/23 06:38:16;;;;;;;7.33;3.03;;;;;;;;;;4995981;28;20450;-66
2021/04/23 06:40:42;;;;;;;5.17;2.80;;;;;;;;;;4993810;28;20498;-65
2021/04/23 06:43:09;;;;;;;6.80;2.80;;;;;;;;;;4999696;28;20449;-66
2021/04/23 06:45:36;;;;;;;8.80;3.37;;;;;;;;;;5013092;28;20933;-65
2021/04/23 06:48:04;;;;;;;7.87;3.07;;;;;;;;;;5027527;28;20459;-65
2021/04/23 06:50:31;;;;;;;6.67;3.00;;;;;;;;;;5033340;28;21013;-65
2021/04/23 06:52:58;;;;;;;9.50;3.23;;;;;;;;;;5018678;28;20445;-65
2021/04/23 06:55:24;;;;;;;10.03;3.70;;;;;;;;;;5011929;28;20460;-65
2021/04/23 06:57:51;;;;;;;12.20;3.83;;;;;;;;;;5013341;28;20461;-67
2021/04/23 07:00:19;;;;;;;8.20;3.17;;;;;;;;;;5013823;28;20524;-69
2021/04/23 07:02:46;;;;;;;7.07;2.87;;;;;;;;;;5002108;28;20500;-66
2021/04/23 07:05:14;;;;;;;6.10;3.33;;;;;;;;;;5023097;28;20457;-64
2021/04/23 07:07:42;;;;;;;8.90;3.10;;;;;;;;;;5020008;28;20549;-64
2021/04/23 07:10:10;;;;;;;6.63;3.07;;;;;;;;;;5012478;28;20567;-64
2021/04/23 07:12:37;;;;;;;8.10;2.80;;;;;;;;;;5028959;28;20910;-65
2021/04/23 07:15:04;;;;;;;7.83;3.20;;;;;;;;;;5019656;28;20453;-64
2021/04/23 07:17:31;;;;;;;8.00;2.07;;;;;;;;;;5019359;28;20440;-65
2021/04/23 07:19:57;;;;;;;5.80;2.50;;;;;;;;;;5032455;28;20980;-64
2021/04/23 07:22:25;;;;;;;6.63;2.73;;;;;;;;;;5017284;28;20450;-65
2021/04/23 07:24:51;;;;;;;7.30;2.90;;;;;;;;;;5004606;28;20506;-64
2021/04/23 07:27:18;;;;;;;4.27;1.97;;;;;;;;;;5017116;28;20486;-64
2021/04/23 07:29:46;;;;;;;4.27;1.93;;;;;;;;;;4997330;28;20470;-66
2021/04/23 07:32:12;;;;;;;6.10;2.93;;;;;;;;;;5020227;28;20969;-64
2021/04/23 07:34:39;;;;;;;8.87;3.30;;;;;;;;;;5000391;28;20461;-65
2021/04/23 07:37:06;;;;;;;9.27;3.00;;;;;;;;;;5009279;28;20516;-65
2021/04/23 07:39:34;;;;;;;5.77;2.80;;;;;;;;;;5002169;28;20470;-64
2021/04/23 07:42:01;;;;;;;6.97;2.53;;;;;;;;;;5020907;28;20454;-63
2021/04/23 07:44:28;;;;;;;6.73;3.00;;;;;;;;;;5012740;28;20449;-64
2021/04/23 07:46:55;;;;;;;6.60;2.53;;;;;;;;;;5011749;28;20478;-64
2021/04/23 07:49:21;;;;;;;6.07;2.80;;;;;;;;;;5018900;28;20485;-65
2021/04/23 07:51:48;;;;;;;6.47;2.77;;;;;;;;;;5010003;28;20505;-64
2021/04/23 07:54:15;;;;;;;5.97;2.50;;;;;;;;;;4999543;28;20552;-64
2021/04/23 07:56:43;;;;;;;7.23;2.70;;;;;;;;;;4994878;28;20447;-64
2021/04/23 07:59:09;;;;;;;6.30;2.50;;;;;;;;;;4998686;28;20545;-64
2021/04/23 08:01:36;;;;;;;5.87;2.53;;;;;;;;;;5010818;28;20465;-64
2021/04/23 08:04:03;;;;;;;4.10;2.50;;;;;;;;;;5005641;28;20450;-66
2021/04/23 08:06:29;;;;;;;5.20;2.47;;;;;;;;;;5031830;28;20496;-66
2021/04/23 08:08:56;;;;;;;10.40;3.10;;;;;;;;;;5013294;28;20473;-66
2021/04/23 08:11:23;;;;;;;6.60;2.10;;;;;;;;;;5012677;28;20507;-66
2021/04/23 08:13:52;;;;;;;4.67;2.13;;;;;;;;;;5002831;28;20446;-66
2021/04/23 08:16:18;;;;;;;3.47;2.37;;;;;;;;;;5030785;28;20944;-66
2021/04/23 08:18:45;;;;;;;5.47;2.40;;;;;;;;;;5019128;28;20477;-66
2021/04/23 08:21:12;;;;;;;4.97;2.20;;;;;;;;;;5011500;28;20533;-67
2021/04/23 08:23:38;;;;;;;4.40;2.13;;;;;;;;;;5012147;28;20580;-66
2021/04/23 08:26:05;;;;;;;4.73;1.93;;;;;;;;;;5005828;28;20479;-66
2021/04/23 08:28:33;;;;;;;7.50;2.43;;;;;;;;;;4992433;28;20553;-67
2021/04/23 08:31:01;;;;;;;5.13;2.77;;;;;;;;;;5005980;28;20454;-66
2021/04/23 08:33:28;;;;;;;7.80;2.30;;;;;;;;;;5011649;28;20446;-66
2021/04/23 08:35:55;;;;;;;4.03;2.00;;;;;;;;;;5021440;28;21043;-66
2021/04/23 08:38:23;;;;;;;4.10;2.30;;;;;;;;;;5011957;28;20565;-66
2021/04/23 08:40:50;;;;;;;5.13;2.30;;;;;;;;;;5006885;28;20453;-66
2021/04/23 08:43:17;;;;;;;5.97;2.83;;;;;;;;;;5010984;28;20463;-67
2021/04/23 08:45:43;;;;;;;29.10;6.90;;;;;;;;;;5011682;28;20548;-65
2021/04/23 08:48:11;;;;;;;11.00;4.97;;;;;;;;;;5010683;28;20450;-66
2021/04/23 08:50:38;;;;;;;25.00;5.43;;;;;;;;;;5011464;28;20858;-66
2021/04/23 08:53:05;;;;;;;12.10;5.97;;;;;;;;;;5011177;28;20450;-66
2021/04/23 08:55:32;;;;;;;23.87;8.57;;;;;;;;;;5011773;28;20449;-66
2021/04/23 08:57:58;;;;;;;13.10;6.23;;;;;;;;;;5016030;28;20449;-66
2021/04/23 09:00:25;;;;;;;14.43;6.20;;;;;;;;;;5000176;28;20477;-66
2021/04/23 09:02:52;;;;;;;11.33;7.50;;;;;;;;;;5011527;28;20446;-66
2021/04/23 09:05:19;;;;;;;10.17;6.37;;;;;;;;;;5011447;28;20459;-67
2021/04/23 09:07:58;;;;;;;10.60;7.33;;;;;;;;;;5020202;28;20492;-66
2021/04/23 09:10:25;;;;;;;11.10;8.07;;;;;;;;;;5030622;28;20468;-66
2021/04/23 09:13:04;;;;;;;8.70;6.27;;;;;;;;;;5012133;28;20962;-66
2021/04/23 09:15:30;;;;;;;7.80;3.93;;;;;;;;;;5004916;28;20441;-66
2021/04/23 09:18:04;;;;;;;5.70;3.30;;;;;;;;;;5006722;28;20460;-66
2021/04/23 09:20:32;;;;;;;8.13;3.90;;;;;;;;;;5030717;28;20472;-66
2021/04/23 09:23:06;;;;;;;16.50;4.87;;;;;;;;;;5013993;28;20458;-66
2021/04/23 09:25:38;;;;;;;13.00;4.93;;;;;;;;;;5009131;28;20952;-67
2021/04/23 09:28:05;;;;;;;5.87;3.10;;;;;;;;;;5011283;28;20922;-65
2021/04/23 09:30:32;;;;;;;13.53;3.80;;;;;;;;;;5003204;28;20983;-67
2021/04/23 09:32:58;;;;;;;11.77;3.50;;;;;;;;;;5008007;28;20457;-66
2021/04/23 09:35:25;;;;;;;8.13;2.90;;;;;;;;;;5018071;28;20448;-66
2021/04/23 09:37:54;;;;;;;9.50;3.70;;;;;;;;;;5034853;28;20448;-66
2021/04/23 09:40:21;;;;;;;6.40;3.40;;;;;;;;;;5012295;28;20526;-66
2021/04/23 09:42:48;;;;;;;9.00;3.33;;;;;;;;;;5028499;28;20457;-65
2021/04/23 09:45:16;;;;;;;7.60;3.40;;;;;;;;;;5014408;28;20445;-67
2021/04/23 09:47:42;;;;;;;10.63;3.90;;;;;;;;;;5015422;28;20478;-65
2021/04/23 09:50:10;;;;;;;4.77;3.27;;;;;;;;;;5012775;28;20493;-66
2021/04/23 09:52:47;;;;;;;6.90;3.23;;;;;;;;;;4994451;28;20870;-66
2021/04/23 09:55:14;;;;;;;6.37;3.23;;;;;;;;;;4995076;28;20473;-65
2021/04/23 09:57:47;;;;;;;7.60;3.50;;;;;;;;;;4994805;28;20942;-66
2021/04/23 10:00:15;;;;;;;6.33;2.83;;;;;;;;;;5005518;28;21018;-65
2021/04/23 10:02:41;;;;;;;6.57;3.53;;;;;;;;;;5014410;28;20541;-65
2021/04/23 10:05:08;;;;;;;7.10;3.30;;;;;;;;;;5007702;28;20454;-65
2021/04/23 10:07:35;;;;;;;5.90;3.40;;;;;;;;;;5033907;28;20828;-66
2021/04/23 10:10:03;;;;;;;5.50;2.77;;;;;;;;;;5022389;28;20477;-65
2021/04/23 10:12:40;;;;;;;5.10;2.97;;;;;;;;;;4994826;28;20462;-65
2021/04/23 10:15:09;;;;;;;6.83;3.27;;;;;;;;;;5023366;28;20506;-66
2021/04/23 10:17:36;;;;;;;10.53;3.50;;;;;;;;;;5033752;28;20453;-65
2021/04/23 10:20:03;;;;;;;6.90;3.40;;;;;;;;;;5013214;28;20471;-66
2021/04/23 10:22:30;;;;;;;5.60;3.40;;;;;;;;;;5009874;28;20901;-66
2021/04/23 10:24:57;;;;;;;6.30;3.30;;;;;;;;;;5023732;28;20452;-66
2021/04/23 10:27:27;;;;;;;7.67;2.87;;;;;;;;;;5028395;28;20482;-66
2021/04/23 10:29:55;;;;;;;5.13;3.40;;;;;;;;;;5014499;28;20481;-65
2021/04/23 10:32:22;;;;;;;5.37;2.93;;;;;;;;;;5020404;28;20564;-67
2021/04/23 10:34:49;;;;;;;3.83;3.00;;;;;;;;;;5000316;28;20459;-67
2021/04/23 10:37:17;;;;;;;7.30;2.93;;;;;;;;;;5006853;28;20446;-67
2021/04/23 10:39:45;;;;;;;5.87;3.13;;;;;;;;;;4998690;28;20490;-68
2021/04/23 10:42:30;;;;;;;9.50;3.70;;;;;;;;;;4994943;28;20478;-66
2021/04/23 10:45:00;;;;;;;7.93;3.00;;;;;;;;;;4995965;28;20461;-66
2021/04/23 10:47:31;;;;;;;6.07;3.30;;;;;;;;;;5003101;28;20561;-66
2021/04/23 10:50:10;;;;;;;5.93;3.40;;;;;;;;;;4993663;28;20501;-67
2021/04/23 10:52:56;;;;;;;9.90;3.63;;;;;;;;;;5009869;28;20956;-66
2021/04/23 10:55:36;;;;;;;5.80;3.20;;;;;;;;;;5021604;28;20809;-65
2021/04/23 10:58:02;;;;;;;6.97;2.90;;;;;;;;;;5013415;28;20441;-65
2021/04/23 11:00:38;;;;;;;6.70;3.00;;;;;;;;;;5014497;28;20475;-64
2021/04/23 11:03:24;;;;;;;5.30;2.40;;;;;;;;;;5009331;28;20445;-65
2021/04/23 11:05:51;;;;;;;5.23;2.37;;;;;;;;;;5004768;28;20456;-65
2021/04/23 11:08:18;;;;;;;5.77;2.83;;;;;;;;;;5029616;28;20464;-65
2021/04/23 11:11:08;;;;;;;3.10;1.73;;;;;;;;;;5022178;28;20449;-63
2021/04/23 11:13:35;;;;;;;4.40;1.93;;;;;;;;;;5017586;28;20827;-64
2021/04/23 11:16:20;;;;;;;5.47;2.10;;;;;;;;;;5019504;28;20511;-64
2021/04/23 11:18:50;;;;;;;7.30;2.27;;;;;;;;;;5028188;28;20529;-65
2021/04/23 11:21:37;;;;;;;5.17;2.60;;;;;;;;;;5022220;28;20445;-67
2021/04/23 11:24:10;;;;;;;4.17;2.27;;;;;;;;;;5020555;28;20452;-65
2021/04/23 11:26:57;;;;;;;9.57;3.50;;;;;;;;;;5001421;28;20568;-65
2021/04/23 11:29:24;;;;;;;7.97;3.20;;;;;;;;;;5029646;28;20473;-64
2021/04/23 11:32:05;;;;;;;12.20;3.47;;;;;;;;;;5019536;28;20449;-65
2021/04/23 11:34:34;;;;;;;7.80;3.40;;;;;;;;;;5022001;28;20449;-65
2021/04/23 11:37:01;;;;;;;7.03;3.70;;;;;;;;;;4997046;28;20454;-64
2021/04/23 11:39:29;;;;;;;14.83;4.30;;;;;;;;;;5001039;28;20874;-65
2021/04/23 11:42:11;;;;;;;8.40;3.67;;;;;;;;;;5004916;28;20995;-65
2021/04/23 11:44:46;;;;;;;9.03;3.80;;;;;;;;;;4999689;28;20473;-64
2021/04/23 11:47:13;;;;;;;8.60;4.47;;;;;;;;;;5000561;28;21026;-64
2021/04/23 11:49:41;;;;;;;8.83;4.13;;;;;;;;;;5041828;23;21024;-60
2021/04/23 11:52:08;;;;;;;7.50;3.20;;;;;;;;;;5031800;28;20463;-61
2021/04/23 11:54:36;;;;;;;10.40;4.10;;;;;;;;;;5034219;28;20445;-60
2021/04/23 11:57:03;;;;;;;7.57;3.40;;;;;;;;;;5033531;28;20459;-61
2021/04/23 11:59:30;;;;;;;9.50;3.33;;;;;;;;;;5038976;28;20488;-61
2021/04/23 12:01:57;;;;;;;8.73;3.73;;;;;;;;;;5055706;28;20441;-61
2021/04/23 12:04:45;;;;;;;8.50;3.60;;;;;;;;;;5051458;28;20455;-60
2021/04/23 12:07:11;;;;;;;6.23;3.23;;;;;;;;;;5054141;28;20486;-61
2021/04/23 12:09:38;;;;;;;8.80;3.40;;;;;;;;;;5034827;28;20472;-61
2021/04/23 12:12:08;;;;;;;5.93;2.90;;;;;;;;;;5052189;28;20443;-60
2021/04/23 12:14:45;;;;;;;9.17;3.60;;;;;;;;;;5052135;28;20436;-60
2021/04/23 12:17:12;;;;;;;5.60;3.50;;;;;;;;;;5051768;28;20420;-60
2021/04/23 12:19:38;;;;;;;6.10;3.17;;;;;;;;;;5052057;28;20467;-61
2021/04/23 12:22:06;;;;;;;7.17;3.20;;;;;;;;;;5051620;28;20444;-61
2021/04/23 12:24:32;;;;;;;7.07;4.00;;;;;;;;;;5051372;28;20451;-61
2021/04/23 12:26:59;;;;;;;8.57;3.90;;;;;;;;;;5040324;28;21300;-60
2021/04/23 12:29:26;;;;;;;6.93;3.60;;;;;;;;;;5031573;28;20465;-60
2021/04/23 12:31:53;;;;;;;5.10;3.53;;;;;;;;;;5031870;28;20505;-60
2021/04/23 12:34:20;;;;;;;7.07;3.80;;;;;;;;;;5031593;28;20459;-60
2021/04/23 12:36:48;;;;;;;8.73;3.53;;;;;;;;;;5031359;28;20917;-61
2021/04/23 12:39:19;;;;;;;7.70;3.50;;;;;;;;;;5031471;28;20467;-61
2021/04/23 12:41:47;;;;;;;6.83;3.43;;;;;;;;;;5031568;28;20813;-60
2021/04/23 12:44:15;;;;;;;6.73;3.60;;;;;;;;;;5032673;28;20459;-61
2021/04/23 12:46:43;;;;;;;6.37;3.40;;;;;;;;;;5035321;28;20484;-61
2021/04/23 12:49:11;;;;;;;8.43;4.07;;;;;;;;;;5035510;28;20477;-60
2021/04/23 12:51:40;;;;;;;11.20;4.40;;;;;;;;;;5035547;28;20439;-60
2021/04/23 12:54:07;;;;;;;6.30;3.40;;;;;;;;;;5035572;28;20458;-61
2021/04/23 12:56:35;;;;;;;6.50;3.40;;;;;;;;;;5035454;28;20470;-61
2021/04/23 12:59:01;;;;;;;7.47;3.47;;;;;;;;;;5034995;28;20879;-61
2021/04/23 13:01:28;;;;;;;6.87;3.83;;;;;;;;;;5035916;28;20445;-61
2021/04/23 13:04:08;;;;;;;7.23;3.47;;;;;;;;;;5035320;28;20444;-60
2021/04/23 13:06:35;;;;;;;7.00;3.43;;;;;;;;;;5052965;28;20468;-60
2021/04/23 13:09:03;;;;;;;9.43;3.60;;;;;;;;;;5055110;28;20460;-59
2021/04/23 13:11:30;;;;;;;8.10;3.60;;;;;;;;;;5055265;28;20540;-60
2021/04/23 13:13:58;;;;;;;4.97;3.00;;;;;;;;;;5054884;28;20451;-60
2021/04/23 13:16:24;;;;;;;5.53;3.60;;;;;;;;;;5038295;28;20445;-60
2021/04/23 13:18:51;;;;;;;6.10;3.07;;;;;;;;;;5034768;28;20447;-60
2021/04/23 13:21:18;;;;;;;7.63;3.40;;;;;;;;;;5034849;28;20445;-60
2021/04/23 13:23:45;;;;;;;9.37;3.70;;;;;;;;;;5034840;28;20449;-60
2021/04/23 13:26:13;;;;;;;6.17;3.87;;;;;;;;;;5034537;28;20543;-60
2021/04/23 13:28:42;;;;;;;8.30;3.50;;;;;;;;;;5034947;28;20449;-60
2021/04/23 13:31:15;;;;;;;6.80;3.27;;;;;;;;;;5034899;28;20465;-60
2021/04/23 13:33:42;;;;;;;7.03;3.43;;;;;;;;;;5034886;28;20788;-60
2021/04/23 13:36:11;;;;;;;8.23;3.50;;;;;;;;;;5034324;28;20448;-60
2021/04/23 13:38:40;;;;;;;10.33;3.53;;;;;;;;;;5034752;28;20444;-60
2021/04/23 13:41:11;;;;;;;6.33;3.00;;;;;;;;;;5035006;28;20472;-60
2021/04/23 13:43:38;;;;;;;8.33;3.20;;;;;;;;;;5034572;28;20990;-60
2021/04/23 13:46:06;;;;;;;6.87;2.80;;;;;;;;;;5034185;28;20451;-60
2021/04/23 13:48:35;;;;;;;4.93;2.70;;;;;;;;;;5034680;28;20456;-60
2021/04/23 13:51:03;;;;;;;4.47;3.20;;;;;;;;;;5034228;28;20477;-60
2021/04/23 13:53:33;;;;;;;7.90;3.43;;;;;;;;;;5038850;28;20447;-60
2021/04/23 13:56:10;;;;;;;7.63;3.20;;;;;;;;;;5043553;28;20886;-60
2021/04/23 13:58:53;;;;;;;7.67;3.50;;;;;;;;;;5034536;28;20452;-60
2021/04/23 14:01:31;;;;;;;6.50;3.30;;;;;;;;;;5034459;28;20445;-60
2021/04/23 14:03:59;;;;;;;6.30;3.80;;;;;;;;;;5034188;28;20429;-59
2021/04/23 14:06:26;;;;;;;5.77;3.20;;;;;;;;;;5033900;28;20488;-60
2021/04/23 14:08:52;;;;;;;5.10;2.70;;;;;;;;;;5033753;28;20445;-60
2021/04/23 14:11:19;;;;;;;7.63;2.90;;;;;;;;;;5033690;28;20502;-60
2021/04/23 14:13:56;;;;;;;7.90;2.63;;;;;;;;;;5033747;28;20541;-60
2021/04/23 14:16:23;;;;;;;9.00;3.40;;;;;;;;;;5043761;28;20460;-59
2021/04/23 14:18:50;;;;;;;6.90;3.30;;;;;;;;;;5053827;28;20997;-59
2021/04/23 14:21:18;;;;;;;6.23;3.10;;;;;;;;;;5053590;28;20942;-59
2021/04/23 14:23:44;;;;;;;5.73;2.90;;;;;;;;;;5053998;28;20454;-59
2021/04/23 14:26:11;;;;;;;6.03;3.10;;;;;;;;;;5044304;28;20870;-59
2021/04/23 14:28:37;;;;;;;5.33;3.30;;;;;;;;;;5033741;28;20461;-59
2021/04/23 14:31:04;;;;;;;7.37;2.90;;;;;;;;;;5033633;28;21052;-59
2021/04/23 14:33:31;;;;;;;7.47;3.50;;;;;;;;;;5034126;28;20448;-61
2021/04/23 14:35:58;;;;;;;8.30;2.90;;;;;;;;;;5039687;28;20814;-59
2021/04/23 14:38:25;;;;;;;5.13;3.50;;;;;;;;;;5053691;28;20813;-62
2021/04/23 14:40:54;;;;;;;6.37;3.33;;;;;;;;;;5053110;28;20484;-59
2021/04/23 14:43:21;;;;;;;7.50;3.30;;;;;;;;;;5053726;28;20456;-60
2021/04/23 14:45:48;;;;;;;6.37;3.10;;;;;;;;;;5047977;28;20963;-60